KPSP

Palm Springs International Airport

Palm Springs, California, USA
KPSP 171131Z 1712/1812 VRB05KT P6SM BKN200 FM172100 32006KT P6SM BKN080
Issued Valid From Valid To
Dec-17 @ 11:31 UTC
(an hour ago)
Dec-17 @ 12:00 UTC
(55 minutes ago)
Dec-18 @ 12:00 UTC
(in 23 hours)
Dec-17 @ 12:00 to Dec-17 @ 21:00
KPSP 171131Z 1712/1812 VRB05KT P6SM BKN200
Wind Visibility Clouds
Variable at 5 knots Greater than 6 miles
  • Broken at 20,000' AGL
From Dec-17 @ 21:00 to Dec-18 @ 12:00
FM172100 32006KT P6SM BKN080
Wind Visibility Clouds
320° at 6 knots Greater than 6 miles
  • Broken at 8,000' AGL
KPSP 171131Z 1712/1812 VRB05KT P6SM BKN200 FM172100 32006KT P6SM BKN080
Issued Dec-17 @ 11:31 UTC
(an hour ago)
Valid From Dec-17 @ 12:00 UTC
(55 minutes ago)
Valid To Dec-18 @ 12:00 UTC
(in 23 hours)
Dec-17 @ 12:00 - Dec-17 @ 21:00
Wind Visibility
Variable at 5 knots Greater than 6 miles
Clouds
  • Broken at 20,000' AGL
From Dec-17 @ 21:00 - Dec-18 @ 12:00
Wind Visibility
320° at 6 knots Greater than 6 miles
Clouds
  • Broken at 8,000' AGL